createdAt,value
2018-07-04T00:00:44.485Z,1007.31
2018-07-04T00:01:44.477Z,1007.26
2018-07-04T00:02:44.464Z,1007.29
2018-07-04T00:03:44.455Z,1007.29
2018-07-04T00:04:44.444Z,1007.26
2018-07-04T00:05:44.435Z,1007.25
2018-07-04T00:15:57.086Z,1007.31
2018-07-04T00:16:57.074Z,1007.26
2018-07-04T00:17:57.065Z,1007.27
2018-07-04T00:18:57.055Z,1007.33
2018-07-04T00:19:57.046Z,1007.36
2018-07-04T00:20:57.034Z,1007.33
2018-07-04T00:21:57.024Z,1007.39
2018-07-04T00:22:57.015Z,1007.34
2018-07-04T00:23:57.006Z,1007.35
2018-07-04T00:24:56.992Z,1007.38
2018-07-04T00:25:56.984Z,1007.37
2018-07-04T00:26:56.970Z,1007.37
2018-07-04T00:27:56.961Z,1007.4
2018-07-04T00:28:56.950Z,1007.36
2018-07-04T00:29:56.939Z,1007.4
2018-07-04T00:30:56.929Z,1007.38
2018-07-04T00:31:56.920Z,1007.38
2018-07-04T00:32:56.909Z,1007.32
2018-07-04T00:33:56.897Z,1007.32
2018-07-04T00:34:56.889Z,1007.31
2018-07-04T00:35:56.891Z,1007.32
2018-07-04T00:36:56.867Z,1007.31
2018-07-04T00:37:56.856Z,1007.29
2018-07-04T00:38:56.845Z,1007.28
2018-07-04T00:39:56.913Z,1007.27
2018-07-04T00:40:56.826Z,1007.26
2018-07-04T00:41:56.813Z,1007.29
2018-07-04T00:42:56.804Z,1007.26
2018-07-04T00:43:56.798Z,1007.27
2018-07-04T00:44:56.783Z,1007.22
2018-07-04T00:45:56.822Z,1007.21
2018-07-04T00:46:56.761Z,1007.2
2018-07-04T00:47:56.751Z,1007.13
2018-07-04T00:48:56.739Z,1007.14
2018-07-04T00:49:56.728Z,1007.1
2018-07-04T00:50:56.727Z,1007.12
2018-07-04T00:51:56.707Z,1007.11
2018-07-04T00:52:56.701Z,1007.08
2018-07-04T00:53:56.691Z,1007.11
2018-07-04T00:54:56.681Z,1007.09
2018-07-04T00:55:56.664Z,1007.01
2018-07-04T00:56:56.659Z,1007.04
2018-07-04T00:57:56.649Z,1007.02
2018-07-04T00:58:56.633Z,1007.03
2018-07-04T00:59:56.624Z,1007.01
2018-07-04T01:00:56.614Z,1007.04
2018-07-04T01:01:56.601Z,1007.01
2018-07-04T01:02:56.590Z,1007.02
2018-07-04T01:03:56.579Z,1007
2018-07-04T01:04:56.571Z,1006.99
2018-07-04T01:05:56.558Z,1007.04
2018-07-04T01:06:56.544Z,1007.03
2018-07-04T01:07:56.536Z,1006.99
2018-07-04T01:08:56.524Z,1006.97
2018-07-04T01:09:56.512Z,1006.97
2018-07-04T01:10:56.502Z,1006.96
2018-07-04T01:11:56.491Z,1006.93
2018-07-04T01:12:56.480Z,1006.92
2018-07-04T01:13:56.469Z,1006.92
2018-07-04T01:14:56.459Z,1006.89
2018-07-04T01:15:56.449Z,1006.88
2018-07-04T01:16:56.436Z,1006.86
2018-07-04T01:17:56.425Z,1006.84
2018-07-04T01:18:56.412Z,1006.81
2018-07-04T01:19:56.405Z,1006.83
2018-07-04T01:20:56.391Z,1006.8
2018-07-04T01:21:56.384Z,1006.87
2018-07-04T01:22:56.369Z,1006.87
2018-07-04T01:23:56.361Z,1006.85
2018-07-04T01:24:56.347Z,1006.85
2018-07-04T01:25:56.336Z,1006.87
2018-07-04T01:26:56.327Z,1006.85
2018-07-04T01:27:56.316Z,1006.89
2018-07-04T01:28:56.303Z,1006.88
2018-07-04T01:29:56.294Z,1006.87
2018-07-04T01:30:56.281Z,1006.89
2018-07-04T01:31:56.271Z,1006.88
2018-07-04T01:32:56.259Z,1006.86
2018-07-04T01:33:56.245Z,1006.88
2018-07-04T01:34:56.238Z,1006.92
2018-07-04T01:35:56.224Z,1006.87
2018-07-04T01:36:56.212Z,1006.88
2018-07-04T01:37:56.201Z,1006.91
2018-07-04T01:38:56.191Z,1006.85
2018-07-04T01:39:56.178Z,1006.89
2018-07-04T01:40:56.370Z,1006.89
2018-07-04T01:41:56.157Z,1006.9
2018-07-04T01:42:56.147Z,1006.89
2018-07-04T01:43:56.141Z,1006.85
2018-07-04T01:44:56.127Z,1006.85
2018-07-04T01:45:56.117Z,1006.83
2018-07-04T01:46:56.105Z,1006.81
2018-07-04T01:47:56.091Z,1006.75
2018-07-04T01:48:56.080Z,1006.78
2018-07-04T01:49:56.069Z,1006.77
2018-07-04T01:50:56.056Z,1006.78
2018-07-04T01:51:56.048Z,1006.78
2018-07-04T01:52:56.035Z,1006.75
2018-07-04T01:53:56.025Z,1006.73
2018-07-04T01:54:56.013Z,1006.73
2018-07-04T01:55:56.002Z,1006.67
2018-07-04T01:56:56.040Z,1006.66
2018-07-04T01:57:55.981Z,1006.63
2018-07-04T01:58:55.967Z,1006.66
2018-07-04T01:59:55.955Z,1006.65
2018-07-04T02:00:55.945Z,1006.62
2018-07-04T02:01:55.934Z,1006.66
2018-07-04T02:02:55.922Z,1006.66
2018-07-04T02:03:55.911Z,1006.71
2018-07-04T02:04:55.900Z,1006.65
2018-07-04T02:05:55.889Z,1006.69
2018-07-04T02:06:55.876Z,1006.7
2018-07-04T02:07:55.866Z,1006.69
2018-07-04T02:08:55.857Z,1006.71
2018-07-04T02:09:55.841Z,1006.73
2018-07-04T02:10:55.830Z,1006.75
2018-07-04T02:11:55.822Z,1006.73
2018-07-04T02:12:55.809Z,1006.71
2018-07-04T02:13:55.795Z,1006.74
2018-07-04T02:14:55.785Z,1006.74
2018-07-04T02:15:55.776Z,1006.73
2018-07-04T02:16:55.761Z,1006.75
2018-07-04T02:17:55.750Z,1006.71
2018-07-04T02:18:55.738Z,1006.68
2018-07-04T02:19:55.729Z,1006.66
2018-07-04T02:20:55.715Z,1006.65
2018-07-04T02:21:55.703Z,1006.61
2018-07-04T02:22:55.691Z,1006.61
2018-07-04T02:23:55.683Z,1006.62
2018-07-04T02:24:55.668Z,1006.59
2018-07-04T02:25:55.658Z,1006.59
2018-07-04T02:26:55.646Z,1006.57
2018-07-04T02:27:55.636Z,1006.57
2018-07-04T02:28:55.626Z,1006.6
2018-07-04T02:29:55.612Z,1006.58
2018-07-04T02:30:55.607Z,1006.56
2018-07-04T02:31:55.590Z,1006.55
2018-07-04T02:32:55.577Z,1006.57
2018-07-04T02:33:55.579Z,1006.53
2018-07-04T02:34:55.553Z,1006.53
2018-07-04T02:35:55.550Z,1006.55
2018-07-04T02:36:55.532Z,1006.52
2018-07-04T02:37:55.520Z,1006.51
2018-07-04T02:38:55.508Z,1006.51
2018-07-04T02:39:55.497Z,1006.52
2018-07-04T02:40:55.484Z,1006.49
2018-07-04T02:41:55.479Z,1006.51
2018-07-04T02:42:55.460Z,1006.5
2018-07-04T02:43:55.451Z,1006.53
2018-07-04T02:44:55.478Z,1006.49
2018-07-04T02:45:55.426Z,1006.53
2018-07-04T02:46:55.417Z,1006.51
2018-07-04T02:47:55.403Z,1006.49
2018-07-04T02:48:55.391Z,1006.52
2018-07-04T02:49:55.379Z,1006.57
2018-07-04T02:50:55.367Z,1006.55
2018-07-04T02:51:55.356Z,1006.58
2018-07-04T02:52:55.346Z,1006.57
2018-07-04T02:53:55.333Z,1006.52
2018-07-04T02:54:55.322Z,1006.48
2018-07-04T02:55:55.310Z,1006.53
2018-07-04T02:56:55.298Z,1006.48
2018-07-04T02:57:55.288Z,1006.5
2018-07-04T02:58:55.277Z,1006.52
2018-07-04T02:59:55.265Z,1006.53
2018-07-04T03:00:55.251Z,1006.53
2018-07-04T03:01:55.442Z,1006.51
2018-07-04T03:02:55.232Z,1006.51
2018-07-04T03:03:55.218Z,1006.47
2018-07-04T03:04:55.208Z,1006.5
2018-07-04T03:05:55.196Z,1006.5
2018-07-04T03:06:55.188Z,1006.5
2018-07-04T03:07:55.175Z,1006.48
2018-07-04T03:08:55.162Z,1006.49
2018-07-04T03:09:55.149Z,1006.47
2018-07-04T03:10:55.137Z,1006.45
2018-07-04T03:11:55.127Z,1006.44
2018-07-04T03:12:55.115Z,1006.43
2018-07-04T03:13:55.102Z,1006.39
2018-07-04T03:14:55.091Z,1006.45
2018-07-04T03:15:55.081Z,1006.39
2018-07-04T03:16:55.071Z,1006.42
2018-07-04T03:17:55.060Z,1006.4
2018-07-04T03:18:55.047Z,1006.36
2018-07-04T03:19:55.036Z,1006.38
2018-07-04T03:20:55.022Z,1006.31
2018-07-04T03:21:55.012Z,1006.34
2018-07-04T03:22:54.997Z,1006.35
2018-07-04T03:23:54.987Z,1006.31
2018-07-04T03:24:54.975Z,1006.32
2018-07-04T03:25:54.966Z,1006.33
2018-07-04T03:26:54.959Z,1006.34
2018-07-04T03:27:54.941Z,1006.34
2018-07-04T03:28:54.928Z,1006.3
2018-07-04T03:29:54.918Z,1006.29
2018-07-04T03:30:54.905Z,1006.27
2018-07-04T03:31:54.896Z,1006.25
2018-07-04T03:32:54.887Z,1006.22
2018-07-04T03:33:54.872Z,1006.23
2018-07-04T03:34:54.865Z,1006.24
2018-07-04T03:35:54.850Z,1006.28
2018-07-04T03:36:54.836Z,1006.25
2018-07-04T03:37:54.826Z,1006.24
2018-07-04T03:38:54.814Z,1006.26
2018-07-04T03:39:54.804Z,1006.29
2018-07-04T03:40:54.997Z,1006.29
2018-07-04T03:41:54.784Z,1006.31
2018-07-04T03:42:54.770Z,1006.33
2018-07-04T03:43:54.759Z,1006.38
2018-07-04T03:44:54.747Z,1006.35
2018-07-04T03:45:54.734Z,1006.37
2018-07-04T03:46:54.726Z,1006.4
2018-07-04T03:47:54.716Z,1006.37
2018-07-04T03:48:54.701Z,1006.37
2018-07-04T03:49:54.701Z,1006.32
2018-07-04T03:50:54.678Z,1006.29
2018-07-04T03:51:54.665Z,1006.33
2018-07-04T03:52:54.655Z,1006.34
2018-07-04T03:53:54.649Z,1006.36
2018-07-04T03:54:54.631Z,1006.33
2018-07-04T03:55:54.622Z,1006.3
2018-07-04T03:56:54.609Z,1006.36
2018-07-04T03:57:54.606Z,1006.39
2018-07-04T03:58:54.587Z,1006.37
2018-07-04T03:59:54.574Z,1006.39
2018-07-04T04:00:54.567Z,1006.35
2018-07-04T04:01:54.559Z,1006.32
2018-07-04T04:02:54.542Z,1006.29
2018-07-04T04:03:54.528Z,1006.27
2018-07-04T04:04:54.522Z,1006.28
2018-07-04T04:05:54.510Z,1006.24
2018-07-04T04:06:54.499Z,1006.27
2018-07-04T04:07:54.493Z,1006.27
2018-07-04T04:08:54.476Z,1006.24
2018-07-04T04:09:54.462Z,1006.27
2018-07-04T04:10:54.451Z,1006.28
2018-07-04T04:11:54.441Z,1006.28
2018-07-04T04:12:54.428Z,1006.3
2018-07-04T04:13:54.419Z,1006.29
2018-07-04T04:14:54.408Z,1006.29
2018-07-04T04:15:54.395Z,1006.29
2018-07-04T04:16:54.385Z,1006.28
2018-07-04T04:17:54.375Z,1006.27
2018-07-04T04:18:54.362Z,1006.22
2018-07-04T04:19:54.364Z,1006.25
2018-07-04T04:20:54.340Z,1006.24
2018-07-04T04:21:54.328Z,1006.22
2018-07-04T04:22:54.318Z,1006.24
2018-07-04T04:23:54.307Z,1006.27
2018-07-04T04:24:54.296Z,1006.26
2018-07-04T04:25:54.286Z,1006.28
2018-07-04T04:26:54.282Z,1006.3
2018-07-04T04:27:54.265Z,1006.3
2018-07-04T04:28:54.256Z,1006.28
2018-07-04T04:29:54.240Z,1006.26
2018-07-04T04:30:54.231Z,1006.23
2018-07-04T04:31:54.219Z,1006.23
2018-07-04T04:32:54.207Z,1006.17
2018-07-04T04:33:54.205Z,1006.22
2018-07-04T04:34:54.186Z,1006.23
2018-07-04T04:35:54.175Z,1006.22
2018-07-04T04:36:54.169Z,1006.22
2018-07-04T04:37:54.159Z,1006.27
2018-07-04T04:38:54.143Z,1006.27
2018-07-04T04:39:54.133Z,1006.24
2018-07-04T04:40:54.121Z,1006.24
2018-07-04T04:41:54.113Z,1006.22
2018-07-04T04:42:54.108Z,1006.25
2018-07-04T04:43:54.094Z,1006.23
2018-07-04T04:44:54.080Z,1006.24
2018-07-04T04:45:54.072Z,1006.29
2018-07-04T04:46:54.058Z,1006.28
2018-07-04T04:47:54.048Z,1006.21
2018-07-04T04:48:54.042Z,1006.21
2018-07-04T04:49:54.027Z,1006.25
2018-07-04T04:50:54.016Z,1006.23
2018-07-04T04:51:54.007Z,1006.22
2018-07-04T04:52:53.998Z,1006.27
2018-07-04T04:53:53.988Z,1006.33
2018-07-04T04:54:54.124Z,1006.28
2018-07-04T04:55:53.967Z,1006.25
2018-07-04T04:56:53.956Z,1006.26
2018-07-04T04:57:53.944Z,1006.21
2018-07-04T04:58:53.932Z,1006.26
2018-07-04T04:59:53.924Z,1006.24
2018-07-04T05:00:53.911Z,1006.24
2018-07-04T05:01:53.902Z,1006.2
2018-07-04T05:02:53.892Z,1006.23
2018-07-04T05:03:53.882Z,1006.22
2018-07-04T05:04:53.871Z,1006.24
2018-07-04T05:05:53.863Z,1006.27
2018-07-04T05:06:53.853Z,1006.25
2018-07-04T05:07:53.870Z,1006.25
2018-07-04T05:08:53.831Z,1006.25
2018-07-04T05:09:53.820Z,1006.28
2018-07-04T05:10:53.810Z,1006.27
2018-07-04T05:11:53.798Z,1006.22
2018-07-04T05:12:53.792Z,1006.2
2018-07-04T05:13:53.782Z,1006.26
2018-07-04T05:14:53.769Z,1006.2
2018-07-04T05:15:53.758Z,1006.23
2018-07-04T05:16:53.749Z,1006.2
2018-07-04T05:17:53.745Z,1006.21
2018-07-04T05:18:53.727Z,1006.22
2018-07-04T05:19:53.717Z,1006.25
2018-07-04T05:20:53.708Z,1006.29
2018-07-04T05:21:53.697Z,1006.25
2018-07-04T05:22:53.686Z,1006.24
2018-07-04T05:23:53.676Z,1006.25
2018-07-04T05:24:53.666Z,1006.27
2018-07-04T05:25:53.655Z,1006.29
2018-07-04T05:26:53.646Z,1006.3
2018-07-04T05:27:53.635Z,1006.29
2018-07-04T05:28:53.627Z,1006.3
2018-07-04T05:29:53.618Z,1006.24
2018-07-04T05:30:53.605Z,1006.28
2018-07-04T05:31:53.596Z,1006.28
2018-07-04T05:32:53.585Z,1006.29
2018-07-04T05:33:53.573Z,1006.32
2018-07-04T05:34:53.564Z,1006.33
2018-07-04T05:35:53.553Z,1006.39
2018-07-04T05:36:53.543Z,1006.38
2018-07-04T05:37:53.534Z,1006.36
2018-07-04T05:38:53.523Z,1006.34
2018-07-04T05:39:53.517Z,1006.36
2018-07-04T05:40:53.927Z,1006.36
2018-07-04T05:41:53.503Z,1006.34
2018-07-04T05:42:53.485Z,1006.35
2018-07-04T05:43:53.715Z,1006.33
2018-07-04T05:44:53.463Z,1006.31
2018-07-04T05:45:53.495Z,1006.28
2018-07-04T05:46:53.445Z,1006.32
2018-07-04T05:47:53.435Z,1006.27
2018-07-04T05:48:53.423Z,1006.27
2018-07-04T05:49:53.416Z,1006.26
2018-07-04T05:50:53.403Z,1006.24
2018-07-04T05:51:53.391Z,1006.24
2018-07-04T05:52:53.383Z,1006.23
2018-07-04T05:53:53.377Z,1006.18
2018-07-04T05:54:53.364Z,1006.2
2018-07-04T05:55:53.352Z,1006.24
2018-07-04T05:56:53.343Z,1006.21
2018-07-04T05:57:53.333Z,1006.18
2018-07-04T05:58:53.324Z,1006.21
2018-07-04T05:59:53.313Z,1006.26
2018-07-04T06:00:53.305Z,1006.24
2018-07-04T06:01:53.295Z,1006.26
2018-07-04T06:02:53.283Z,1006.31
2018-07-04T06:03:53.272Z,1006.28
2018-07-04T06:04:53.264Z,1006.28
2018-07-04T06:05:53.255Z,1006.29
2018-07-04T06:06:53.244Z,1006.26
2018-07-04T06:07:53.235Z,1006.23
2018-07-04T06:08:53.226Z,1006.25
2018-07-04T06:09:53.217Z,1006.27
2018-07-04T06:10:53.209Z,1006.21
2018-07-04T06:11:53.198Z,1006.27
2018-07-04T06:12:53.187Z,1006.27
2018-07-04T06:13:53.175Z,1006.28
2018-07-04T06:14:53.166Z,1006.24
2018-07-04T06:15:53.156Z,1006.28
2018-07-04T06:16:53.148Z,1006.24
2018-07-04T06:17:53.137Z,1006.26
2018-07-04T06:18:53.155Z,1006.27
2018-07-04T06:19:53.120Z,1006.27
2018-07-04T06:20:53.108Z,1006.27
2018-07-04T06:21:53.098Z,1006.23
2018-07-04T06:22:53.091Z,1006.24
2018-07-04T06:23:53.078Z,1006.21
2018-07-04T06:24:53.074Z,1006.23
2018-07-04T06:25:53.062Z,1006.21
2018-07-04T06:26:53.050Z,1006.21
2018-07-04T06:27:53.046Z,1006.2
2018-07-04T06:28:53.033Z,1006.19
2018-07-04T06:29:53.027Z,1006.19
2018-07-04T06:30:53.013Z,1006.21
2018-07-04T06:31:53.003Z,1006.23
2018-07-04T06:32:52.993Z,1006.18
2018-07-04T06:33:52.983Z,1006.25
2018-07-04T06:34:52.977Z,1006.24
2018-07-04T06:35:52.965Z,1006.26
2018-07-04T06:36:52.958Z,1006.23
2018-07-04T06:37:52.946Z,1006.31
2018-07-04T06:38:52.936Z,1006.28
2018-07-04T06:39:52.928Z,1006.29
2018-07-04T06:40:52.916Z,1006.27
2018-07-04T06:41:52.908Z,1006.25
2018-07-04T06:42:52.896Z,1006.26
2018-07-04T06:43:52.895Z,1006.25
2018-07-04T06:44:52.880Z,1006.25
2018-07-04T06:45:52.873Z,1006.27
2018-07-04T06:46:52.863Z,1006.3
2018-07-04T06:47:52.851Z,1006.33
2018-07-04T06:48:52.856Z,1006.3
2018-07-04T06:49:52.836Z,1006.36
2018-07-04T06:50:52.826Z,1006.31
2018-07-04T06:51:52.814Z,1006.3
2018-07-04T06:52:52.806Z,1006.39
2018-07-04T06:53:52.806Z,1006.4
2018-07-04T06:54:52.789Z,1006.34
2018-07-04T06:55:52.780Z,1006.33
2018-07-04T06:56:52.772Z,1006.3
2018-07-04T06:57:52.761Z,1006.25
2018-07-04T06:58:52.754Z,1006.27
2018-07-04T06:59:52.744Z,1006.25
2018-07-04T07:00:52.736Z,1006.27
2018-07-04T07:01:52.760Z,1006.28
2018-07-04T07:02:52.717Z,1006.27
2018-07-04T07:03:52.711Z,1006.26
2018-07-04T07:04:52.699Z,1006.28
2018-07-04T07:05:52.692Z,1006.25
2018-07-04T07:06:52.684Z,1006.28
2018-07-04T07:07:52.677Z,1006.28
2018-07-04T07:08:52.674Z,1006.24
2018-07-04T07:09:52.660Z,1006.26
2018-07-04T07:10:52.650Z,1006.22
2018-07-04T07:11:52.641Z,1006.28
2018-07-04T07:12:52.633Z,1006.28
2018-07-04T07:13:52.627Z,1006.24
2018-07-04T07:14:52.626Z,1006.19
2018-07-04T07:15:52.608Z,1006.21
2018-07-04T07:16:52.607Z,1006.25
2018-07-04T07:17:52.593Z,1006.42
2018-07-04T07:18:52.586Z,1006.47
2018-07-04T07:19:52.577Z,1006.47
2018-07-04T07:20:52.571Z,1006.52
2018-07-04T07:21:52.564Z,1006.57
2018-07-04T07:22:52.556Z,1006.53
2018-07-04T07:23:52.551Z,1006.55
2018-07-04T07:24:52.545Z,1006.52
2018-07-04T07:25:52.537Z,1006.53
2018-07-04T07:26:52.530Z,1006.52
2018-07-04T07:27:52.528Z,1006.55
2018-07-04T07:28:52.526Z,1006.61
2018-07-04T07:29:52.516Z,1006.59
2018-07-04T07:30:52.508Z,1006.59
2018-07-04T07:31:52.503Z,1006.58
2018-07-04T07:32:52.500Z,1006.56
2018-07-04T07:33:52.557Z,1006.58
2018-07-04T07:34:52.490Z,1006.62
2018-07-04T07:35:52.491Z,1006.57
2018-07-04T07:36:52.481Z,1006.59
2018-07-04T07:37:52.480Z,1006.56
2018-07-04T07:38:52.472Z,1006.58
2018-07-04T07:39:52.470Z,1006.6
2018-07-04T07:40:52.670Z,1006.64
2018-07-04T07:41:52.501Z,1006.62
2018-07-04T07:42:52.459Z,1006.6
2018-07-04T07:43:52.457Z,1006.59
2018-07-04T07:44:52.453Z,1006.56
2018-07-04T07:45:52.451Z,1006.56
2018-07-04T07:46:52.448Z,1006.54
2018-07-04T07:47:52.445Z,1006.55
2018-07-04T07:48:52.486Z,1006.55
2018-07-04T07:49:52.440Z,1006.55
2018-07-04T07:50:52.439Z,1006.56
2018-07-04T07:51:52.436Z,1006.55
2018-07-04T07:52:52.436Z,1006.59
2018-07-04T07:53:52.430Z,1006.58
2018-07-04T07:54:52.433Z,1006.56
2018-07-04T07:55:52.429Z,1006.57
2018-07-04T07:56:52.425Z,1006.56
2018-07-04T07:57:52.424Z,1006.51
2018-07-04T07:58:52.425Z,1006.51
2018-07-04T07:59:52.423Z,1006.52
2018-07-04T08:00:52.422Z,1006.49
2018-07-04T08:01:52.432Z,1006.5
2018-07-04T08:02:52.427Z,1006.45
2018-07-04T08:03:52.421Z,1006.5
2018-07-04T08:04:52.420Z,1006.49
2018-07-04T08:05:52.433Z,1006.5
2018-07-04T08:06:52.422Z,1006.46
2018-07-04T08:07:52.418Z,1006.5
2018-07-04T08:08:52.419Z,1006.47
2018-07-04T08:09:52.423Z,1006.45
2018-07-04T08:10:52.419Z,1006.43
2018-07-04T08:11:52.421Z,1006.43
2018-07-04T08:12:52.421Z,1006.45
2018-07-04T08:13:52.424Z,1006.43
2018-07-04T08:14:52.420Z,1006.42
2018-07-04T08:15:52.427Z,1006.45
2018-07-04T08:16:52.429Z,1006.47
2018-07-04T08:17:52.421Z,1006.48
2018-07-04T08:18:52.480Z,1006.46
2018-07-04T08:19:52.426Z,1006.53
2018-07-04T08:20:52.428Z,1006.49
2018-07-04T08:21:52.598Z,1006.54
2018-07-04T08:22:52.434Z,1006.57
2018-07-04T08:23:52.432Z,1006.5
2018-07-04T08:24:52.430Z,1006.48
2018-07-04T08:25:52.436Z,1006.51
2018-07-04T08:26:52.436Z,1006.49
2018-07-04T08:27:52.436Z,1006.51
2018-07-04T08:28:52.441Z,1006.45
2018-07-04T08:29:52.442Z,1006.42
2018-07-04T08:30:52.447Z,1006.45
2018-07-04T08:31:52.491Z,1006.32
2018-07-04T08:32:52.446Z,1006.33
2018-07-04T08:33:52.446Z,1006.33
2018-07-04T08:34:52.452Z,1006.29
2018-07-04T08:35:52.449Z,1006.43
2018-07-04T08:36:52.454Z,1006.46
2018-07-04T08:37:52.453Z,1006.25
2018-07-04T08:38:52.480Z,1006.28
2018-07-04T08:39:52.459Z,1006.25
2018-07-04T08:40:52.455Z,1006.13
2018-07-04T08:41:52.457Z,1006.11
2018-07-04T08:42:52.464Z,1006.1
2018-07-04T08:43:52.459Z,1006.11
2018-07-04T08:44:52.465Z,1006.12
2018-07-04T08:45:52.459Z,1006.09
2018-07-04T08:46:52.458Z,1006.14
2018-07-04T08:47:52.461Z,1006.16
2018-07-04T08:48:52.458Z,1006.1
2018-07-04T08:49:52.457Z,1006.12
2018-07-04T08:50:52.567Z,1006.09
2018-07-04T08:51:52.454Z,1006.13
2018-07-04T08:52:52.500Z,1006.13
2018-07-04T08:53:52.450Z,1006.06
2018-07-04T08:54:52.449Z,1006.13
2018-07-04T08:55:52.446Z,1006.36
2018-07-04T08:56:52.446Z,1006.37
2018-07-04T08:57:52.442Z,1006.5
2018-07-04T08:58:52.442Z,1006.64
2018-07-04T08:59:52.449Z,1006.65
2018-07-04T09:00:52.438Z,1006.61
2018-07-04T09:01:52.444Z,1006.65
2018-07-04T09:02:52.438Z,1006.61
2018-07-04T09:03:52.435Z,1006.61
2018-07-04T09:04:52.435Z,1006.59
2018-07-04T09:05:52.434Z,1006.65
2018-07-04T09:06:52.440Z,1006.73
2018-07-04T09:07:52.436Z,1006.76
2018-07-04T09:08:52.435Z,1006.72
2018-07-04T09:09:52.436Z,1006.72
2018-07-04T09:10:52.441Z,1006.78
2018-07-04T09:11:52.473Z,1006.65
2018-07-04T09:12:52.437Z,1006.59
2018-07-04T09:13:52.443Z,1006.66
2018-07-04T09:14:52.442Z,1006.64
2018-07-04T09:15:52.444Z,1006.51
2018-07-04T09:16:52.445Z,1006.51
2018-07-04T09:17:52.447Z,1006.59
2018-07-04T09:18:52.451Z,1006.7
2018-07-04T09:19:52.451Z,1006.49
2018-07-04T09:20:52.454Z,1006.25
2018-07-04T09:21:52.457Z,1006.27
2018-07-04T09:22:52.465Z,1006.26
2018-07-04T09:23:52.460Z,1006.37
2018-07-04T09:24:52.464Z,1006.38
2018-07-04T09:25:52.464Z,1006.39
2018-07-04T09:26:52.467Z,1006.35
2018-07-04T09:27:52.469Z,1006.34
2018-07-04T09:28:52.470Z,1006.3
2018-07-04T09:29:52.473Z,1006.46
2018-07-04T09:30:52.471Z,1006.41
2018-07-04T09:31:52.473Z,1006.34
2018-07-04T09:32:52.476Z,1006.38
2018-07-04T09:33:52.475Z,1006.39
2018-07-04T09:34:52.477Z,1006.58
2018-07-04T09:35:52.478Z,1006.58
2018-07-04T09:36:52.481Z,1006.46
2018-07-04T09:37:52.482Z,1006.53
2018-07-04T09:38:52.489Z,1006.51
2018-07-04T09:39:52.486Z,1006.5
2018-07-04T09:40:52.488Z,1006.26
2018-07-04T09:41:52.488Z,1006.37
2018-07-04T09:42:52.497Z,1006.2
2018-07-04T09:43:52.538Z,1006.11
2018-07-04T09:44:52.496Z,1005.98
2018-07-04T09:45:52.501Z,1006.07
2018-07-04T09:46:52.507Z,1006.05
2018-07-04T09:47:52.504Z,1006.03
2018-07-04T09:48:52.503Z,1006.01
2018-07-04T09:49:52.505Z,1006.09
2018-07-04T09:50:52.511Z,1006.08
2018-07-04T09:51:52.523Z,1005.99
2018-07-04T09:52:52.509Z,1005.96
2018-07-04T09:53:52.514Z,1005.95
2018-07-04T09:54:52.510Z,1005.94
2018-07-04T09:55:52.510Z,1005.92
2018-07-04T09:56:52.511Z,1005.95
2018-07-04T09:57:52.511Z,1005.93
2018-07-04T09:58:52.537Z,1005.94
2018-07-04T09:59:52.511Z,1005.94
2018-07-04T10:00:52.517Z,1005.89
2018-07-04T10:01:52.511Z,1005.92
2018-07-04T10:02:52.512Z,1005.89
2018-07-04T10:03:52.511Z,1005.92
2018-07-04T10:04:52.507Z,1005.98
2018-07-04T10:05:52.505Z,1006.06
2018-07-04T10:06:52.513Z,1006.05
2018-07-04T10:07:52.504Z,1005.93
2018-07-04T10:08:52.504Z,1005.94
2018-07-04T10:09:52.504Z,1005.96
2018-07-04T10:10:52.500Z,1005.92
2018-07-04T10:11:52.501Z,1005.9
2018-07-04T10:12:52.500Z,1005.93
2018-07-04T10:13:52.499Z,1005.92
2018-07-04T10:14:52.499Z,1005.95
2018-07-04T10:15:52.497Z,1006.01
2018-07-04T10:16:52.494Z,1005.96
2018-07-04T10:17:52.502Z,1005.92
2018-07-04T10:18:52.495Z,1005.97
2018-07-04T10:19:52.493Z,1005.99
2018-07-04T10:20:52.490Z,1005.97
2018-07-04T10:21:52.493Z,1005.96
2018-07-04T10:22:52.487Z,1006.22
2018-07-04T10:23:52.487Z,1006.18
2018-07-04T10:24:52.487Z,1006.12
2018-07-04T10:25:52.487Z,1006.19
2018-07-04T10:26:52.490Z,1006.18
2018-07-04T10:27:52.486Z,1006.19
2018-07-04T10:28:52.535Z,1006.14
2018-07-04T10:29:52.489Z,1006.13
2018-07-04T10:30:52.486Z,1006.13
2018-07-04T10:31:52.490Z,1006.1
2018-07-04T10:32:52.489Z,1006.11
2018-07-04T10:33:52.489Z,1006.09
2018-07-04T10:34:52.495Z,1006.07
2018-07-04T10:35:52.499Z,1006.09
2018-07-04T10:36:52.497Z,1006.11
2018-07-04T10:37:52.499Z,1006.11
2018-07-04T10:38:52.503Z,1006.11
2018-07-04T10:39:52.509Z,1006.09
2018-07-04T10:40:52.509Z,1006.07
2018-07-04T10:41:52.511Z,1006.12
2018-07-04T10:42:52.514Z,1006.06
2018-07-04T10:43:52.519Z,1006.09
2018-07-04T10:44:52.585Z,1006.02
2018-07-04T10:45:52.527Z,1006.03
2018-07-04T10:46:52.531Z,1006.01
2018-07-04T10:47:52.536Z,1005.94
2018-07-04T10:48:52.542Z,1005.91
2018-07-04T10:49:52.545Z,1005.89
2018-07-04T10:50:52.601Z,1005.88
2018-07-04T10:51:52.555Z,1005.86
2018-07-04T10:52:52.558Z,1005.88
2018-07-04T10:53:52.565Z,1005.83
2018-07-04T10:54:52.570Z,1005.82
2018-07-04T10:55:52.576Z,1005.82
2018-07-04T10:56:52.584Z,1005.82
2018-07-04T10:57:52.586Z,1005.83
2018-07-04T10:58:52.594Z,1005.82
2018-07-04T10:59:52.602Z,1005.78
2018-07-04T11:00:52.606Z,1005.74
2018-07-04T11:01:52.612Z,1005.76
2018-07-04T11:02:52.616Z,1005.73
2018-07-04T11:03:52.624Z,1005.71
2018-07-04T11:04:52.631Z,1005.73
2018-07-04T11:05:52.635Z,1005.71
2018-07-04T11:06:52.642Z,1005.65
2018-07-04T11:07:52.723Z,1005.63
2018-07-04T11:08:52.662Z,1005.64
2018-07-04T11:09:52.662Z,1005.62
2018-07-04T11:10:52.671Z,1005.58
2018-07-04T11:11:52.676Z,1005.61
2018-07-04T11:12:52.687Z,1005.57
2018-07-04T11:13:52.694Z,1005.57
2018-07-04T11:14:52.704Z,1005.55
2018-07-04T11:15:52.705Z,1005.53
2018-07-04T11:16:52.795Z,1005.53
2018-07-04T11:17:52.725Z,1005.53
2018-07-04T11:18:52.729Z,1005.56
2018-07-04T11:19:52.736Z,1005.55
2018-07-04T11:20:52.742Z,1005.54
2018-07-04T11:21:52.752Z,1005.57
2018-07-04T11:22:52.757Z,1005.53
2018-07-04T11:23:52.763Z,1005.56
2018-07-04T11:24:52.770Z,1005.53
2018-07-04T11:25:52.779Z,1005.47
2018-07-04T11:26:52.789Z,1005.41
2018-07-04T11:27:52.792Z,1005.42
2018-07-04T11:28:52.800Z,1005.43
2018-07-04T11:29:52.807Z,1005.39
2018-07-04T11:30:52.816Z,1005.43
2018-07-04T11:31:52.820Z,1005.4
2018-07-04T11:32:52.827Z,1005.43
2018-07-04T11:33:52.845Z,1005.42
2018-07-04T11:34:52.842Z,1005.38
2018-07-04T11:35:52.849Z,1005.38
2018-07-04T11:36:52.855Z,1005.33
2018-07-04T11:37:52.861Z,1005.33
2018-07-04T11:38:52.872Z,1005.32
2018-07-04T11:39:52.876Z,1005.32
2018-07-04T11:40:52.881Z,1005.33
2018-07-04T11:41:52.889Z,1005.28
2018-07-04T11:42:52.896Z,1005.28
2018-07-04T11:43:52.902Z,1005.27
2018-07-04T11:44:52.910Z,1005.29
2018-07-04T11:45:52.917Z,1005.26
2018-07-04T11:46:52.925Z,1005.25
2018-07-04T11:47:52.936Z,1005.27
2018-07-04T11:48:52.944Z,1005.28
2018-07-04T11:49:52.948Z,1005.28
2018-07-04T11:50:52.957Z,1005.24
2018-07-04T11:51:52.969Z,1005.22
2018-07-04T11:52:52.972Z,1005.22
2018-07-04T11:53:52.982Z,1005.16
2018-07-04T11:54:52.989Z,1005.2
2018-07-04T11:55:53.000Z,1005.23
2018-07-04T11:56:53.005Z,1005.18
2018-07-04T11:57:53.015Z,1005.17
2018-07-04T11:58:53.022Z,1005.17
2018-07-04T11:59:53.030Z,1005.18
2018-07-04T12:00:53.041Z,1005.19
2018-07-04T12:01:53.171Z,1005.13
2018-07-04T12:02:53.053Z,1005.13
2018-07-04T12:03:53.066Z,1005.14
2018-07-04T12:04:53.073Z,1005.15
2018-07-04T12:05:53.078Z,1005.12
2018-07-04T12:06:53.084Z,1005.09
2018-07-04T12:07:53.094Z,1005.08
2018-07-04T12:08:53.105Z,1005.03
2018-07-04T12:09:53.113Z,1004.99
2018-07-04T12:10:53.168Z,1005.03
2018-07-04T12:11:53.127Z,1005.13
2018-07-04T12:12:53.135Z,1005.07
2018-07-04T12:13:53.144Z,1005.07
2018-07-04T12:14:53.152Z,1005.06
2018-07-04T12:15:53.163Z,1005.06
2018-07-04T12:16:53.171Z,1005.11